sensor_id;sensor_type;location;lat;lon;timestamp;P1;durP1;ratioP1;P2;durP2;ratioP2
52368;SDS011;38298;50.346;3.526;2023-07-31T00:01:25;6.60;;;2.40;;
52368;SDS011;38298;50.346;3.526;2023-07-31T00:03:51;5.25;;;2.33;;
52368;SDS011;38298;50.346;3.526;2023-07-31T00:06:17;5.78;;;2.22;;
52368;SDS011;38298;50.346;3.526;2023-07-31T00:08:43;5.30;;;2.35;;
52368;SDS011;38298;50.346;3.526;2023-07-31T00:11:09;5.25;;;2.15;;
52368;SDS011;38298;50.346;3.526;2023-07-31T00:13:35;4.47;;;2.30;;
52368;SDS011;38298;50.346;3.526;2023-07-31T00:16:01;4.55;;;2.38;;
52368;SDS011;38298;50.346;3.526;2023-07-31T00:18:27;5.63;;;2.53;;
52368;SDS011;38298;50.346;3.526;2023-07-31T00:20:53;3.92;;;2.10;;
52368;SDS011;38298;50.346;3.526;2023-07-31T00:23:19;4.47;;;2.05;;
52368;SDS011;38298;50.346;3.526;2023-07-31T00:25:45;7.28;;;2.22;;
52368;SDS011;38298;50.346;3.526;2023-07-31T00:28:11;5.22;;;1.95;;
52368;SDS011;38298;50.346;3.526;2023-07-31T00:30:37;2.60;;;1.77;;
52368;SDS011;38298;50.346;3.526;2023-07-31T00:33:03;3.17;;;1.88;;
52368;SDS011;38298;50.346;3.526;2023-07-31T00:35:29;3.60;;;1.67;;
52368;SDS011;38298;50.346;3.526;2023-07-31T00:37:56;4.65;;;2.03;;
52368;SDS011;38298;50.346;3.526;2023-07-31T00:40:22;5.22;;;1.63;;
52368;SDS011;38298;50.346;3.526;2023-07-31T00:42:51;5.50;;;1.92;;
52368;SDS011;38298;50.346;3.526;2023-07-31T00:45:17;3.42;;;1.70;;
52368;SDS011;38298;50.346;3.526;2023-07-31T00:47:43;5.10;;;2.17;;
52368;SDS011;38298;50.346;3.526;2023-07-31T00:50:09;4.78;;;1.70;;
52368;SDS011;38298;50.346;3.526;2023-07-31T00:52:35;5.03;;;1.92;;
52368;SDS011;38298;50.346;3.526;2023-07-31T00:55:02;4.43;;;1.90;;
52368;SDS011;38298;50.346;3.526;2023-07-31T00:57:28;4.70;;;2.00;;
52368;SDS011;38298;50.346;3.526;2023-07-31T00:59:54;3.50;;;1.75;;
52368;SDS011;38298;50.346;3.526;2023-07-31T01:02:20;3.03;;;1.98;;
52368;SDS011;38298;50.346;3.526;2023-07-31T01:04:46;6.78;;;2.05;;
52368;SDS011;38298;50.346;3.526;2023-07-31T01:07:34;5.00;;;1.60;;
52368;SDS011;38298;50.346;3.526;2023-07-31T01:10:08;5.28;;;1.83;;
52368;SDS011;38298;50.346;3.526;2023-07-31T01:12:36;6.43;;;1.60;;
52368;SDS011;38298;50.346;3.526;2023-07-31T01:15:04;4.82;;;1.83;;
52368;SDS011;38298;50.346;3.526;2023-07-31T01:17:30;5.00;;;1.85;;
52368;SDS011;38298;50.346;3.526;2023-07-31T01:19:57;3.53;;;1.55;;
52368;SDS011;38298;50.346;3.526;2023-07-31T01:27:30;4.78;;;1.92;;
52368;SDS011;38298;50.346;3.526;2023-07-31T01:29:59;3.17;;;1.70;;
52368;SDS011;38298;50.346;3.526;2023-07-31T01:32:26;3.95;;;1.77;;
52368;SDS011;38298;50.346;3.526;2023-07-31T01:34:54;3.63;;;1.92;;
52368;SDS011;38298;50.346;3.526;2023-07-31T01:37:20;3.42;;;1.75;;
52368;SDS011;38298;50.346;3.526;2023-07-31T01:39:46;4.13;;;1.70;;
52368;SDS011;38298;50.346;3.526;2023-07-31T01:42:12;5.40;;;2.10;;
52368;SDS011;38298;50.346;3.526;2023-07-31T01:44:39;3.90;;;1.83;;
52368;SDS011;38298;50.346;3.526;2023-07-31T01:47:05;7.07;;;2.15;;
52368;SDS011;38298;50.346;3.526;2023-07-31T01:49:31;6.28;;;2.00;;
52368;SDS011;38298;50.346;3.526;2023-07-31T01:51:57;4.45;;;2.03;;
52368;SDS011;38298;50.346;3.526;2023-07-31T01:54:23;10.32;;;1.90;;
52368;SDS011;38298;50.346;3.526;2023-07-31T01:56:49;4.65;;;2.20;;
52368;SDS011;38298;50.346;3.526;2023-07-31T01:59:15;4.13;;;2.20;;
52368;SDS011;38298;50.346;3.526;2023-07-31T02:01:41;4.18;;;1.50;;
52368;SDS011;38298;50.346;3.526;2023-07-31T02:04:07;3.08;;;1.85;;
52368;SDS011;38298;50.346;3.526;2023-07-31T02:06:33;10.10;;;2.63;;
52368;SDS011;38298;50.346;3.526;2023-07-31T02:08:59;7.95;;;2.15;;
52368;SDS011;38298;50.346;3.526;2023-07-31T02:11:25;6.50;;;1.88;;
52368;SDS011;38298;50.346;3.526;2023-07-31T02:13:51;6.35;;;2.00;;
52368;SDS011;38298;50.346;3.526;2023-07-31T02:16:17;6.70;;;1.92;;
52368;SDS011;38298;50.346;3.526;2023-07-31T02:18:43;4.88;;;1.95;;
52368;SDS011;38298;50.346;3.526;2023-07-31T02:21:09;2.92;;;2.00;;
52368;SDS011;38298;50.346;3.526;2023-07-31T02:23:35;3.95;;;1.73;;
52368;SDS011;38298;50.346;3.526;2023-07-31T02:26:01;6.05;;;2.03;;
52368;SDS011;38298;50.346;3.526;2023-07-31T02:28:28;6.55;;;2.03;;
52368;SDS011;38298;50.346;3.526;2023-07-31T02:30:54;6.60;;;2.00;;
52368;SDS011;38298;50.346;3.526;2023-07-31T02:33:20;3.25;;;1.77;;
52368;SDS011;38298;50.346;3.526;2023-07-31T02:35:46;3.17;;;1.55;;
52368;SDS011;38298;50.346;3.526;2023-07-31T02:38:12;4.57;;;2.38;;
52368;SDS011;38298;50.346;3.526;2023-07-31T02:40:39;3.90;;;1.85;;
52368;SDS011;38298;50.346;3.526;2023-07-31T02:43:06;9.50;;;1.75;;
52368;SDS011;38298;50.346;3.526;2023-07-31T02:45:32;4.30;;;1.77;;
52368;SDS011;38298;50.346;3.526;2023-07-31T02:47:58;6.75;;;2.10;;
52368;SDS011;38298;50.346;3.526;2023-07-31T02:50:24;8.10;;;2.22;;
52368;SDS011;38298;50.346;3.526;2023-07-31T02:52:50;7.32;;;2.20;;
52368;SDS011;38298;50.346;3.526;2023-07-31T02:55:16;7.25;;;2.17;;
52368;SDS011;38298;50.346;3.526;2023-07-31T02:57:42;6.20;;;1.80;;
52368;SDS011;38298;50.346;3.526;2023-07-31T03:00:08;5.38;;;2.15;;
52368;SDS011;38298;50.346;3.526;2023-07-31T03:02:34;6.65;;;2.47;;
52368;SDS011;38298;50.346;3.526;2023-07-31T03:05:00;7.93;;;2.80;;
52368;SDS011;38298;50.346;3.526;2023-07-31T03:07:26;4.22;;;1.90;;
52368;SDS011;38298;50.346;3.526;2023-07-31T03:09:53;4.22;;;2.13;;
52368;SDS011;38298;50.346;3.526;2023-07-31T03:12:19;4.78;;;1.75;;
52368;SDS011;38298;50.346;3.526;2023-07-31T03:14:45;5.85;;;2.08;;
52368;SDS011;38298;50.346;3.526;2023-07-31T03:17:11;4.60;;;2.00;;
52368;SDS011;38298;50.346;3.526;2023-07-31T03:19:37;4.72;;;1.73;;
52368;SDS011;38298;50.346;3.526;2023-07-31T03:22:03;6.00;;;2.00;;
52368;SDS011;38298;50.346;3.526;2023-07-31T03:24:29;4.53;;;2.03;;
52368;SDS011;38298;50.346;3.526;2023-07-31T03:26:55;6.53;;;1.98;;
52368;SDS011;38298;50.346;3.526;2023-07-31T03:29:21;4.97;;;2.15;;
52368;SDS011;38298;50.346;3.526;2023-07-31T03:31:47;5.40;;;1.80;;
52368;SDS011;38298;50.346;3.526;2023-07-31T03:34:13;5.40;;;2.05;;
52368;SDS011;38298;50.346;3.526;2023-07-31T03:36:39;6.47;;;1.80;;
52368;SDS011;38298;50.346;3.526;2023-07-31T03:39:05;5.35;;;2.10;;
52368;SDS011;38298;50.346;3.526;2023-07-31T03:41:31;4.63;;;1.60;;
52368;SDS011;38298;50.346;3.526;2023-07-31T03:43:57;7.93;;;2.13;;
52368;SDS011;38298;50.346;3.526;2023-07-31T03:46:24;3.60;;;2.10;;
52368;SDS011;38298;50.346;3.526;2023-07-31T03:48:50;4.97;;;1.60;;
52368;SDS011;38298;50.346;3.526;2023-07-31T03:51:16;4.13;;;2.08;;
52368;SDS011;38298;50.346;3.526;2023-07-31T03:53:43;6.93;;;2.40;;
52368;SDS011;38298;50.346;3.526;2023-07-31T03:56:09;5.75;;;1.77;;
52368;SDS011;38298;50.346;3.526;2023-07-31T03:58:35;5.50;;;2.03;;
52368;SDS011;38298;50.346;3.526;2023-07-31T04:01:02;4.97;;;1.95;;
52368;SDS011;38298;50.346;3.526;2023-07-31T04:03:28;7.50;;;1.90;;
52368;SDS011;38298;50.346;3.526;2023-07-31T04:05:54;4.65;;;1.92;;
52368;SDS011;38298;50.346;3.526;2023-07-31T04:08:23;6.63;;;2.17;;
52368;SDS011;38298;50.346;3.526;2023-07-31T04:10:49;5.68;;;2.20;;
52368;SDS011;38298;50.346;3.526;2023-07-31T04:13:15;5.45;;;2.13;;
52368;SDS011;38298;50.346;3.526;2023-07-31T04:15:42;6.22;;;1.90;;
52368;SDS011;38298;50.346;3.526;2023-07-31T04:18:08;3.78;;;1.77;;
52368;SDS011;38298;50.346;3.526;2023-07-31T04:20:34;8.07;;;2.13;;
52368;SDS011;38298;50.346;3.526;2023-07-31T04:23:00;3.97;;;2.05;;
52368;SDS011;38298;50.346;3.526;2023-07-31T04:25:25;5.05;;;2.17;;
52368;SDS011;38298;50.346;3.526;2023-07-31T04:27:51;3.97;;;2.05;;
52368;SDS011;38298;50.346;3.526;2023-07-31T04:30:17;5.53;;;2.33;;
52368;SDS011;38298;50.346;3.526;2023-07-31T04:32:43;6.85;;;1.90;;
52368;SDS011;38298;50.346;3.526;2023-07-31T04:35:10;4.28;;;1.95;;
52368;SDS011;38298;50.346;3.526;2023-07-31T04:37:36;6.50;;;2.05;;
52368;SDS011;38298;50.346;3.526;2023-07-31T04:40:03;6.30;;;2.00;;
52368;SDS011;38298;50.346;3.526;2023-07-31T04:42:29;4.80;;;1.80;;
52368;SDS011;38298;50.346;3.526;2023-07-31T04:44:55;4.10;;;2.08;;
52368;SDS011;38298;50.346;3.526;2023-07-31T04:47:24;4.60;;;1.88;;
52368;SDS011;38298;50.346;3.526;2023-07-31T04:49:50;5.35;;;2.20;;
52368;SDS011;38298;50.346;3.526;2023-07-31T04:52:16;6.47;;;2.22;;
52368;SDS011;38298;50.346;3.526;2023-07-31T04:54:42;3.42;;;1.48;;
52368;SDS011;38298;50.346;3.526;2023-07-31T04:57:08;4.70;;;1.80;;
52368;SDS011;38298;50.346;3.526;2023-07-31T04:59:34;3.67;;;2.08;;
52368;SDS011;38298;50.346;3.526;2023-07-31T05:02:00;7.60;;;2.35;;
52368;SDS011;38298;50.346;3.526;2023-07-31T05:04:26;10.98;;;2.35;;
52368;SDS011;38298;50.346;3.526;2023-07-31T05:06:52;5.10;;;2.38;;
52368;SDS011;38298;50.346;3.526;2023-07-31T05:09:18;8.75;;;2.28;;
52368;SDS011;38298;50.346;3.526;2023-07-31T05:11:44;7.00;;;2.22;;
52368;SDS011;38298;50.346;3.526;2023-07-31T05:14:10;6.40;;;2.20;;
52368;SDS011;38298;50.346;3.526;2023-07-31T05:16:36;8.90;;;2.00;;
52368;SDS011;38298;50.346;3.526;2023-07-31T05:19:02;3.60;;;2.10;;
52368;SDS011;38298;50.346;3.526;2023-07-31T05:21:28;6.05;;;1.77;;
52368;SDS011;38298;50.346;3.526;2023-07-31T05:23:54;8.30;;;2.80;;
52368;SDS011;38298;50.346;3.526;2023-07-31T05:26:20;7.07;;;2.13;;
52368;SDS011;38298;50.346;3.526;2023-07-31T05:28:46;6.05;;;2.47;;
52368;SDS011;38298;50.346;3.526;2023-07-31T05:31:12;7.25;;;1.98;;
52368;SDS011;38298;50.346;3.526;2023-07-31T05:33:38;6.15;;;2.00;;
52368;SDS011;38298;50.346;3.526;2023-07-31T05:36:04;9.48;;;3.08;;
52368;SDS011;38298;50.346;3.526;2023-07-31T05:38:30;4.88;;;2.03;;
52368;SDS011;38298;50.346;3.526;2023-07-31T05:40:56;10.13;;;2.05;;
52368;SDS011;38298;50.346;3.526;2023-07-31T05:43:22;5.97;;;1.90;;
52368;SDS011;38298;50.346;3.526;2023-07-31T05:45:48;7.85;;;2.70;;
52368;SDS011;38298;50.346;3.526;2023-07-31T05:48:14;10.38;;;2.22;;
52368;SDS011;38298;50.346;3.526;2023-07-31T05:50:40;7.95;;;2.25;;
52368;SDS011;38298;50.346;3.526;2023-07-31T05:53:06;5.18;;;1.80;;
52368;SDS011;38298;50.346;3.526;2023-07-31T05:55:33;4.97;;;2.15;;
52368;SDS011;38298;50.346;3.526;2023-07-31T05:57:59;10.95;;;2.35;;
52368;SDS011;38298;50.346;3.526;2023-07-31T06:00:25;6.05;;;1.95;;
52368;SDS011;38298;50.346;3.526;2023-07-31T06:02:52;5.97;;;2.08;;
52368;SDS011;38298;50.346;3.526;2023-07-31T06:05:18;9.35;;;2.00;;
52368;SDS011;38298;50.346;3.526;2023-07-31T06:07:44;6.53;;;2.33;;
52368;SDS011;38298;50.346;3.526;2023-07-31T06:10:10;5.53;;;2.00;;
52368;SDS011;38298;50.346;3.526;2023-07-31T06:12:36;6.55;;;1.90;;
52368;SDS011;38298;50.346;3.526;2023-07-31T06:15:02;5.25;;;2.15;;
52368;SDS011;38298;50.346;3.526;2023-07-31T06:17:29;6.55;;;2.00;;
52368;SDS011;38298;50.346;3.526;2023-07-31T06:19:56;3.50;;;1.90;;
52368;SDS011;38298;50.346;3.526;2023-07-31T06:22:22;6.45;;;1.92;;
52368;SDS011;38298;50.346;3.526;2023-07-31T06:24:48;5.47;;;1.88;;
52368;SDS011;38298;50.346;3.526;2023-07-31T06:27:14;9.38;;;2.38;;
52368;SDS011;38298;50.346;3.526;2023-07-31T06:29:40;6.38;;;1.88;;
52368;SDS011;38298;50.346;3.526;2023-07-31T06:32:06;5.68;;;2.15;;
52368;SDS011;38298;50.346;3.526;2023-07-31T06:34:32;6.18;;;2.20;;
52368;SDS011;38298;50.346;3.526;2023-07-31T06:36:58;5.53;;;1.83;;
52368;SDS011;38298;50.346;3.526;2023-07-31T06:39:24;4.80;;;1.95;;
52368;SDS011;38298;50.346;3.526;2023-07-31T06:41:50;5.60;;;1.95;;
52368;SDS011;38298;50.346;3.526;2023-07-31T06:44:16;5.20;;;1.95;;
52368;SDS011;38298;50.346;3.526;2023-07-31T06:46:42;5.70;;;1.88;;
52368;SDS011;38298;50.346;3.526;2023-07-31T06:49:08;6.05;;;1.73;;
52368;SDS011;38298;50.346;3.526;2023-07-31T06:51:34;7.70;;;1.65;;
52368;SDS011;38298;50.346;3.526;2023-07-31T06:54:01;5.32;;;2.15;;
52368;SDS011;38298;50.346;3.526;2023-07-31T06:56:27;8.38;;;2.03;;
52368;SDS011;38298;50.346;3.526;2023-07-31T06:58:53;6.90;;;1.67;;
52368;SDS011;38298;50.346;3.526;2023-07-31T07:01:19;8.55;;;1.92;;
52368;SDS011;38298;50.346;3.526;2023-07-31T07:03:45;5.50;;;1.77;;
52368;SDS011;38298;50.346;3.526;2023-07-31T07:06:11;8.63;;;1.65;;
52368;SDS011;38298;50.346;3.526;2023-07-31T07:08:37;11.98;;;2.08;;
52368;SDS011;38298;50.346;3.526;2023-07-31T07:11:03;8.82;;;2.00;;
52368;SDS011;38298;50.346;3.526;2023-07-31T07:13:29;2.92;;;1.52;;
52368;SDS011;38298;50.346;3.526;2023-07-31T07:15:55;3.92;;;1.98;;
52368;SDS011;38298;50.346;3.526;2023-07-31T07:18:21;10.40;;;2.17;;
52368;SDS011;38298;50.346;3.526;2023-07-31T07:20:49;7.22;;;2.63;;
52368;SDS011;38298;50.346;3.526;2023-07-31T07:23:16;4.63;;;2.40;;
52368;SDS011;38298;50.346;3.526;2023-07-31T07:25:42;10.10;;;2.00;;
52368;SDS011;38298;50.346;3.526;2023-07-31T07:28:08;6.28;;;2.47;;
52368;SDS011;38298;50.346;3.526;2023-07-31T07:30:34;6.88;;;2.05;;
52368;SDS011;38298;50.346;3.526;2023-07-31T07:33:00;7.45;;;2.03;;
52368;SDS011;38298;50.346;3.526;2023-07-31T07:35:26;7.32;;;1.95;;
52368;SDS011;38298;50.346;3.526;2023-07-31T07:37:52;7.95;;;2.28;;
52368;SDS011;38298;50.346;3.526;2023-07-31T07:40:19;10.88;;;2.55;;
52368;SDS011;38298;50.346;3.526;2023-07-31T07:42:45;6.75;;;2.08;;
52368;SDS011;38298;50.346;3.526;2023-07-31T07:45:11;5.05;;;2.22;;
52368;SDS011;38298;50.346;3.526;2023-07-31T07:47:37;5.43;;;2.08;;
52368;SDS011;38298;50.346;3.526;2023-07-31T07:50:04;7.13;;;2.20;;
52368;SDS011;38298;50.346;3.526;2023-07-31T07:52:30;4.43;;;2.28;;
52368;SDS011;38298;50.346;3.526;2023-07-31T07:54:56;7.43;;;2.28;;
52368;SDS011;38298;50.346;3.526;2023-07-31T07:57:22;5.90;;;2.05;;
52368;SDS011;38298;50.346;3.526;2023-07-31T07:59:48;5.32;;;1.77;;
52368;SDS011;38298;50.346;3.526;2023-07-31T08:02:14;5.13;;;2.10;;
52368;SDS011;38298;50.346;3.526;2023-07-31T08:04:40;7.85;;;2.63;;
52368;SDS011;38298;50.346;3.526;2023-07-31T08:07:06;6.85;;;2.38;;
52368;SDS011;38298;50.346;3.526;2023-07-31T08:09:32;6.25;;;1.83;;
52368;SDS011;38298;50.346;3.526;2023-07-31T08:11:58;6.72;;;1.98;;
52368;SDS011;38298;50.346;3.526;2023-07-31T08:14:27;7.05;;;2.40;;
52368;SDS011;38298;50.346;3.526;2023-07-31T08:16:53;4.88;;;2.08;;
52368;SDS011;38298;50.346;3.526;2023-07-31T08:19:19;5.43;;;1.95;;
52368;SDS011;38298;50.346;3.526;2023-07-31T08:21:45;7.15;;;2.10;;
52368;SDS011;38298;50.346;3.526;2023-07-31T08:24:11;7.93;;;2.45;;
52368;SDS011;38298;50.346;3.526;2023-07-31T08:26:37;6.15;;;2.00;;
52368;SDS011;38298;50.346;3.526;2023-07-31T08:29:03;5.53;;;1.98;;
52368;SDS011;38298;50.346;3.526;2023-07-31T08:31:29;3.88;;;2.05;;
52368;SDS011;38298;50.346;3.526;2023-07-31T08:33:56;6.82;;;2.00;;
52368;SDS011;38298;50.346;3.526;2023-07-31T08:36:22;5.88;;;2.63;;
52368;SDS011;38298;50.346;3.526;2023-07-31T08:38:48;6.65;;;2.60;;
52368;SDS011;38298;50.346;3.526;2023-07-31T08:41:15;5.70;;;2.15;;
52368;SDS011;38298;50.346;3.526;2023-07-31T08:43:44;7.10;;;2.38;;
52368;SDS011;38298;50.346;3.526;2023-07-31T08:46:11;7.25;;;2.13;;
52368;SDS011;38298;50.346;3.526;2023-07-31T08:48:39;6.13;;;2.33;;
52368;SDS011;38298;50.346;3.526;2023-07-31T08:51:06;6.65;;;1.98;;
52368;SDS011;38298;50.346;3.526;2023-07-31T08:53:32;6.35;;;2.50;;
52368;SDS011;38298;50.346;3.526;2023-07-31T08:55:58;7.38;;;2.60;;
52368;SDS011;38298;50.346;3.526;2023-07-31T08:58:25;8.20;;;2.55;;
52368;SDS011;38298;50.346;3.526;2023-07-31T09:00:52;9.90;;;2.25;;
52368;SDS011;38298;50.346;3.526;2023-07-31T09:03:18;5.72;;;2.90;;
52368;SDS011;38298;50.346;3.526;2023-07-31T09:05:45;8.90;;;3.20;;
52368;SDS011;38298;50.346;3.526;2023-07-31T09:08:14;8.40;;;3.20;;
52368;SDS011;38298;50.346;3.526;2023-07-31T09:10:43;6.50;;;2.92;;
52368;SDS011;38298;50.346;3.526;2023-07-31T09:13:15;11.00;;;3.47;;
52368;SDS011;38298;50.346;3.526;2023-07-31T09:15:45;9.80;;;3.03;;
52368;SDS011;38298;50.346;3.526;2023-07-31T09:18:11;11.00;;;2.70;;
52368;SDS011;38298;50.346;3.526;2023-07-31T09:23:09;7.18;;;2.92;;
52368;SDS011;38298;50.346;3.526;2023-07-31T09:25:36;7.22;;;2.78;;
52368;SDS011;38298;50.346;3.526;2023-07-31T09:28:04;10.13;;;3.25;;
52368;SDS011;38298;50.346;3.526;2023-07-31T09:30:30;7.25;;;2.47;;
52368;SDS011;38298;50.346;3.526;2023-07-31T09:33:01;10.45;;;2.95;;
52368;SDS011;38298;50.346;3.526;2023-07-31T09:35:28;6.45;;;2.55;;
52368;SDS011;38298;50.346;3.526;2023-07-31T09:37:58;7.90;;;2.78;;
52368;SDS011;38298;50.346;3.526;2023-07-31T09:40:25;10.07;;;3.00;;
52368;SDS011;38298;50.346;3.526;2023-07-31T09:42:52;8.18;;;2.97;;
52368;SDS011;38298;50.346;3.526;2023-07-31T09:45:18;7.05;;;2.78;;
52368;SDS011;38298;50.346;3.526;2023-07-31T09:47:48;9.23;;;2.45;;
52368;SDS011;38298;50.346;3.526;2023-07-31T09:50:14;8.02;;;2.97;;
52368;SDS011;38298;50.346;3.526;2023-07-31T09:52:41;11.10;;;2.97;;
52368;SDS011;38298;50.346;3.526;2023-07-31T09:55:07;6.88;;;2.10;;
52368;SDS011;38298;50.346;3.526;2023-07-31T09:57:34;9.70;;;2.42;;
52368;SDS011;38298;50.346;3.526;2023-07-31T10:00:00;7.00;;;2.30;;
52368;SDS011;38298;50.346;3.526;2023-07-31T10:02:26;9.15;;;2.92;;
52368;SDS011;38298;50.346;3.526;2023-07-31T10:04:53;5.68;;;2.42;;
52368;SDS011;38298;50.346;3.526;2023-07-31T10:07:23;4.35;;;2.38;;
52368;SDS011;38298;50.346;3.526;2023-07-31T10:09:51;6.05;;;2.47;;
52368;SDS011;38298;50.346;3.526;2023-07-31T10:12:18;8.75;;;2.22;;
52368;SDS011;38298;50.346;3.526;2023-07-31T10:14:45;6.50;;;2.80;;
52368;SDS011;38298;50.346;3.526;2023-07-31T10:17:11;4.10;;;2.30;;
52368;SDS011;38298;50.346;3.526;2023-07-31T10:19:37;9.60;;;2.95;;
52368;SDS011;38298;50.346;3.526;2023-07-31T10:22:04;5.65;;;2.50;;
52368;SDS011;38298;50.346;3.526;2023-07-31T10:24:31;6.47;;;2.17;;
52368;SDS011;38298;50.346;3.526;2023-07-31T10:26:58;8.48;;;3.03;;
52368;SDS011;38298;50.346;3.526;2023-07-31T10:29:25;8.18;;;2.65;;
52368;SDS011;38298;50.346;3.526;2023-07-31T10:31:52;9.85;;;2.90;;
52368;SDS011;38298;50.346;3.526;2023-07-31T10:34:19;6.50;;;2.22;;
52368;SDS011;38298;50.346;3.526;2023-07-31T10:36:45;15.40;;;2.70;;
52368;SDS011;38298;50.346;3.526;2023-07-31T10:41:56;5.60;;;2.33;;
52368;SDS011;38298;50.346;3.526;2023-07-31T10:44:22;4.47;;;2.20;;
52368;SDS011;38298;50.346;3.526;2023-07-31T10:46:48;4.55;;;2.20;;
52368;SDS011;38298;50.346;3.526;2023-07-31T10:49:14;5.25;;;2.53;;
52368;SDS011;38298;50.346;3.526;2023-07-31T10:51:46;2.67;;;1.83;;
52368;SDS011;38298;50.346;3.526;2023-07-31T10:54:13;5.00;;;2.63;;
52368;SDS011;38298;50.346;3.526;2023-07-31T10:56:40;4.38;;;2.33;;
52368;SDS011;38298;50.346;3.526;2023-07-31T10:59:06;7.95;;;2.42;;
52368;SDS011;38298;50.346;3.526;2023-07-31T11:04:21;6.80;;;2.50;;
52368;SDS011;38298;50.346;3.526;2023-07-31T11:07:06;5.90;;;2.28;;
52368;SDS011;38298;50.346;3.526;2023-07-31T11:09:35;7.53;;;2.47;;
52368;SDS011;38298;50.346;3.526;2023-07-31T11:12:01;6.95;;;2.50;;
52368;SDS011;38298;50.346;3.526;2023-07-31T11:14:28;9.15;;;2.50;;
52368;SDS011;38298;50.346;3.526;2023-07-31T11:16:54;4.47;;;2.20;;
52368;SDS011;38298;50.346;3.526;2023-07-31T11:19:23;6.72;;;2.40;;
52368;SDS011;38298;50.346;3.526;2023-07-31T11:21:50;8.45;;;2.45;;
52368;SDS011;38298;50.346;3.526;2023-07-31T11:24:17;4.90;;;2.25;;
52368;SDS011;38298;50.346;3.526;2023-07-31T11:26:50;7.15;;;2.38;;
52368;SDS011;38298;50.346;3.526;2023-07-31T11:29:16;8.50;;;2.22;;
52368;SDS011;38298;50.346;3.526;2023-07-31T11:31:42;9.18;;;2.50;;
52368;SDS011;38298;50.346;3.526;2023-07-31T11:34:08;10.73;;;2.40;;
52368;SDS011;38298;50.346;3.526;2023-07-31T11:36:34;11.52;;;2.28;;
52368;SDS011;38298;50.346;3.526;2023-07-31T11:39:10;6.90;;;3.22;;
52368;SDS011;38298;50.346;3.526;2023-07-31T11:41:36;8.15;;;3.00;;
52368;SDS011;38298;50.346;3.526;2023-07-31T11:44:02;8.57;;;2.72;;
52368;SDS011;38298;50.346;3.526;2023-07-31T11:46:29;6.75;;;2.50;;
52368;SDS011;38298;50.346;3.526;2023-07-31T11:48:59;4.22;;;2.20;;
52368;SDS011;38298;50.346;3.526;2023-07-31T11:51:26;7.50;;;2.25;;
52368;SDS011;38298;50.346;3.526;2023-07-31T11:53:55;5.85;;;2.53;;
52368;SDS011;38298;50.346;3.526;2023-07-31T11:56:21;5.63;;;2.60;;
52368;SDS011;38298;50.346;3.526;2023-07-31T11:58:50;6.13;;;2.65;;
52368;SDS011;38298;50.346;3.526;2023-07-31T12:01:20;6.35;;;2.28;;
52368;SDS011;38298;50.346;3.526;2023-07-31T12:03:47;5.00;;;2.08;;
52368;SDS011;38298;50.346;3.526;2023-07-31T12:06:13;6.03;;;2.25;;
52368;SDS011;38298;50.346;3.526;2023-07-31T12:08:39;4.43;;;2.25;;
52368;SDS011;38298;50.346;3.526;2023-07-31T12:11:06;6.72;;;2.45;;
52368;SDS011;38298;50.346;3.526;2023-07-31T12:13:32;8.27;;;2.65;;
52368;SDS011;38298;50.346;3.526;2023-07-31T12:15:59;7.63;;;2.85;;
52368;SDS011;38298;50.346;3.526;2023-07-31T12:18:27;6.28;;;2.60;;
52368;SDS011;38298;50.346;3.526;2023-07-31T12:20:57;4.22;;;2.45;;
52368;SDS011;38298;50.346;3.526;2023-07-31T12:23:24;10.45;;;2.67;;
52368;SDS011;38298;50.346;3.526;2023-07-31T12:28:26;6.85;;;2.60;;
52368;SDS011;38298;50.346;3.526;2023-07-31T12:30:52;5.50;;;2.20;;
52368;SDS011;38298;50.346;3.526;2023-07-31T12:33:22;5.63;;;2.65;;
52368;SDS011;38298;50.346;3.526;2023-07-31T12:35:48;4.85;;;2.08;;
52368;SDS011;38298;50.346;3.526;2023-07-31T12:38:14;5.97;;;2.80;;
52368;SDS011;38298;50.346;3.526;2023-07-31T12:40:40;7.53;;;2.28;;
52368;SDS011;38298;50.346;3.526;2023-07-31T12:43:07;4.28;;;2.35;;
52368;SDS011;38298;50.346;3.526;2023-07-31T12:45:34;5.47;;;2.50;;
52368;SDS011;38298;50.346;3.526;2023-07-31T12:48:00;7.88;;;2.70;;
52368;SDS011;38298;50.346;3.526;2023-07-31T12:50:26;5.22;;;2.15;;
52368;SDS011;38298;50.346;3.526;2023-07-31T12:52:53;5.18;;;1.90;;
52368;SDS011;38298;50.346;3.526;2023-07-31T12:55:19;6.10;;;2.42;;
52368;SDS011;38298;50.346;3.526;2023-07-31T12:57:45;5.75;;;2.40;;
52368;SDS011;38298;50.346;3.526;2023-07-31T13:00:11;8.18;;;2.53;;
52368;SDS011;38298;50.346;3.526;2023-07-31T13:02:38;4.53;;;2.00;;
52368;SDS011;38298;50.346;3.526;2023-07-31T13:05:04;4.30;;;2.05;;
52368;SDS011;38298;50.346;3.526;2023-07-31T13:07:30;5.30;;;2.05;;
52368;SDS011;38298;50.346;3.526;2023-07-31T13:09:56;7.82;;;1.60;;
52368;SDS011;38298;50.346;3.526;2023-07-31T13:12:22;8.13;;;2.42;;
52368;SDS011;38298;50.346;3.526;2023-07-31T13:14:48;3.95;;;1.77;;
52368;SDS011;38298;50.346;3.526;2023-07-31T13:17:14;3.13;;;1.80;;
52368;SDS011;38298;50.346;3.526;2023-07-31T13:19:40;2.95;;;1.77;;
52368;SDS011;38298;50.346;3.526;2023-07-31T13:22:06;2.85;;;1.55;;
52368;SDS011;38298;50.346;3.526;2023-07-31T13:24:32;2.33;;;1.30;;
52368;SDS011;38298;50.346;3.526;2023-07-31T13:26:58;2.97;;;1.55;;
52368;SDS011;38298;50.346;3.526;2023-07-31T13:29:24;2.50;;;1.38;;
52368;SDS011;38298;50.346;3.526;2023-07-31T13:31:50;3.42;;;1.42;;
52368;SDS011;38298;50.346;3.526;2023-07-31T13:34:16;4.10;;;1.60;;
52368;SDS011;38298;50.346;3.526;2023-07-31T13:36:42;6.05;;;1.40;;
52368;SDS011;38298;50.346;3.526;2023-07-31T13:39:08;4.45;;;1.52;;
52368;SDS011;38298;50.346;3.526;2023-07-31T13:41:34;2.25;;;1.40;;
52368;SDS011;38298;50.346;3.526;2023-07-31T13:44:00;3.10;;;1.70;;
52368;SDS011;38298;50.346;3.526;2023-07-31T13:46:26;3.80;;;1.60;;
52368;SDS011;38298;50.346;3.526;2023-07-31T13:48:52;4.40;;;1.65;;
52368;SDS011;38298;50.346;3.526;2023-07-31T13:51:20;3.13;;;1.52;;
52368;SDS011;38298;50.346;3.526;2023-07-31T13:53:52;3.65;;;1.80;;
52368;SDS011;38298;50.346;3.526;2023-07-31T13:56:18;2.85;;;1.95;;
52368;SDS011;38298;50.346;3.526;2023-07-31T13:58:44;3.15;;;1.48;;
52368;SDS011;38298;50.346;3.526;2023-07-31T14:01:10;2.35;;;1.60;;
52368;SDS011;38298;50.346;3.526;2023-07-31T14:03:36;2.63;;;1.50;;
52368;SDS011;38298;50.346;3.526;2023-07-31T14:06:02;1.92;;;1.23;;
52368;SDS011;38298;50.346;3.526;2023-07-31T14:08:28;2.47;;;1.50;;
52368;SDS011;38298;50.346;3.526;2023-07-31T14:10:55;3.75;;;1.58;;
52368;SDS011;38298;50.346;3.526;2023-07-31T14:13:21;1.95;;;1.40;;
52368;SDS011;38298;50.346;3.526;2023-07-31T14:15:47;2.63;;;1.23;;
52368;SDS011;38298;50.346;3.526;2023-07-31T14:18:13;2.95;;;1.33;;
52368;SDS011;38298;50.346;3.526;2023-07-31T14:20:39;3.40;;;1.73;;
52368;SDS011;38298;50.346;3.526;2023-07-31T14:23:05;1.98;;;1.10;;
52368;SDS011;38298;50.346;3.526;2023-07-31T14:25:31;1.90;;;1.00;;
52368;SDS011;38298;50.346;3.526;2023-07-31T14:27:57;2.03;;;1.10;;
52368;SDS011;38298;50.346;3.526;2023-07-31T14:30:24;2.95;;;1.58;;
52368;SDS011;38298;50.346;3.526;2023-07-31T14:32:50;2.13;;;1.30;;
52368;SDS011;38298;50.346;3.526;2023-07-31T14:35:16;1.73;;;1.08;;
52368;SDS011;38298;50.346;3.526;2023-07-31T14:37:42;2.58;;;1.25;;
52368;SDS011;38298;50.346;3.526;2023-07-31T14:40:09;2.25;;;1.23;;
52368;SDS011;38298;50.346;3.526;2023-07-31T14:42:36;2.20;;;1.10;;
52368;SDS011;38298;50.346;3.526;2023-07-31T14:45:03;2.90;;;1.25;;
52368;SDS011;38298;50.346;3.526;2023-07-31T14:47:29;4.05;;;1.13;;
52368;SDS011;38298;50.346;3.526;2023-07-31T14:49:59;1.55;;;1.10;;
52368;SDS011;38298;50.346;3.526;2023-07-31T14:52:25;2.35;;;1.30;;
52368;SDS011;38298;50.346;3.526;2023-07-31T14:54:51;2.40;;;1.27;;
52368;SDS011;38298;50.346;3.526;2023-07-31T14:57:18;2.50;;;1.10;;
52368;SDS011;38298;50.346;3.526;2023-07-31T14:59:44;2.25;;;1.40;;